sensor_id;sensor_type;location;lat;lon;timestamp;P1;durP1;ratioP1;P2;durP2;ratioP2
47153;SDS011;32907;41.412;2.164;2023-07-30T00:00:48;4.97;;;2.38;;
47153;SDS011;32907;41.412;2.164;2023-07-30T00:03:17;4.55;;;2.50;;
47153;SDS011;32907;41.412;2.164;2023-07-30T00:05:52;6.95;;;2.90;;
47153;SDS011;32907;41.412;2.164;2023-07-30T00:08:21;6.47;;;2.80;;
47153;SDS011;32907;41.412;2.164;2023-07-30T00:10:49;5.50;;;2.17;;
47153;SDS011;32907;41.412;2.164;2023-07-30T00:13:17;6.88;;;2.60;;
47153;SDS011;32907;41.412;2.164;2023-07-30T00:15:46;5.72;;;2.20;;
47153;SDS011;32907;41.412;2.164;2023-07-30T00:18:14;5.45;;;2.13;;
47153;SDS011;32907;41.412;2.164;2023-07-30T00:20:43;5.18;;;2.40;;
47153;SDS011;32907;41.412;2.164;2023-07-30T00:23:11;5.13;;;2.42;;
47153;SDS011;32907;41.412;2.164;2023-07-30T00:25:39;5.80;;;2.30;;
47153;SDS011;32907;41.412;2.164;2023-07-30T00:28:07;5.80;;;2.17;;
47153;SDS011;32907;41.412;2.164;2023-07-30T00:30:36;4.65;;;2.30;;
47153;SDS011;32907;41.412;2.164;2023-07-30T00:33:04;4.95;;;2.50;;
47153;SDS011;32907;41.412;2.164;2023-07-30T00:35:32;5.18;;;2.03;;
47153;SDS011;32907;41.412;2.164;2023-07-30T00:37:59;4.35;;;2.22;;
47153;SDS011;32907;41.412;2.164;2023-07-30T00:40:27;5.47;;;2.00;;
47153;SDS011;32907;41.412;2.164;2023-07-30T00:42:55;6.65;;;2.38;;
47153;SDS011;32907;41.412;2.164;2023-07-30T00:45:23;4.40;;;2.03;;
47153;SDS011;32907;41.412;2.164;2023-07-30T00:47:51;5.38;;;2.50;;
47153;SDS011;32907;41.412;2.164;2023-07-30T00:50:19;6.15;;;2.13;;
47153;SDS011;32907;41.412;2.164;2023-07-30T00:52:47;6.30;;;2.30;;
47153;SDS011;32907;41.412;2.164;2023-07-30T00:55:15;5.38;;;2.70;;
47153;SDS011;32907;41.412;2.164;2023-07-30T00:57:44;5.38;;;2.30;;
47153;SDS011;32907;41.412;2.164;2023-07-30T01:00:12;4.65;;;2.28;;
47153;SDS011;32907;41.412;2.164;2023-07-30T01:02:42;5.75;;;2.20;;
47153;SDS011;32907;41.412;2.164;2023-07-30T01:05:11;3.25;;;1.70;;
47153;SDS011;32907;41.412;2.164;2023-07-30T01:07:39;4.65;;;2.10;;
47153;SDS011;32907;41.412;2.164;2023-07-30T01:10:07;5.35;;;2.33;;
47153;SDS011;32907;41.412;2.164;2023-07-30T01:12:35;3.75;;;2.03;;
47153;SDS011;32907;41.412;2.164;2023-07-30T01:15:04;5.55;;;2.22;;
47153;SDS011;32907;41.412;2.164;2023-07-30T01:17:33;5.93;;;2.03;;
47153;SDS011;32907;41.412;2.164;2023-07-30T01:20:02;5.13;;;1.90;;
47153;SDS011;32907;41.412;2.164;2023-07-30T01:22:30;3.53;;;1.80;;
47153;SDS011;32907;41.412;2.164;2023-07-30T01:24:58;4.43;;;2.20;;
47153;SDS011;32907;41.412;2.164;2023-07-30T01:27:31;4.07;;;1.85;;
47153;SDS011;32907;41.412;2.164;2023-07-30T01:30:15;7.43;;;2.30;;
47153;SDS011;32907;41.412;2.164;2023-07-30T01:32:49;6.00;;;2.08;;
47153;SDS011;32907;41.412;2.164;2023-07-30T01:35:25;6.18;;;2.10;;
47153;SDS011;32907;41.412;2.164;2023-07-30T01:37:54;4.28;;;2.13;;
47153;SDS011;32907;41.412;2.164;2023-07-30T01:40:23;3.35;;;1.75;;
47153;SDS011;32907;41.412;2.164;2023-07-30T01:42:51;3.75;;;1.85;;
47153;SDS011;32907;41.412;2.164;2023-07-30T01:45:19;3.67;;;1.77;;
47153;SDS011;32907;41.412;2.164;2023-07-30T01:47:47;5.78;;;2.08;;
47153;SDS011;32907;41.412;2.164;2023-07-30T01:50:15;4.22;;;1.77;;
47153;SDS011;32907;41.412;2.164;2023-07-30T01:52:43;7.20;;;2.03;;
47153;SDS011;32907;41.412;2.164;2023-07-30T01:55:10;9.57;;;2.30;;
47153;SDS011;32907;41.412;2.164;2023-07-30T01:57:38;3.40;;;1.80;;
47153;SDS011;32907;41.412;2.164;2023-07-30T02:00:06;4.78;;;1.88;;
47153;SDS011;32907;41.412;2.164;2023-07-30T02:02:35;4.82;;;1.90;;
47153;SDS011;32907;41.412;2.164;2023-07-30T02:05:04;4.63;;;1.80;;
47153;SDS011;32907;41.412;2.164;2023-07-30T02:07:32;3.97;;;1.80;;
47153;SDS011;32907;41.412;2.164;2023-07-30T02:10:00;4.43;;;2.13;;
47153;SDS011;32907;41.412;2.164;2023-07-30T02:12:28;4.75;;;2.08;;
47153;SDS011;32907;41.412;2.164;2023-07-30T02:14:56;4.93;;;1.83;;
47153;SDS011;32907;41.412;2.164;2023-07-30T02:17:23;5.18;;;2.10;;
47153;SDS011;32907;41.412;2.164;2023-07-30T02:19:51;4.28;;;1.60;;
47153;SDS011;32907;41.412;2.164;2023-07-30T02:22:19;7.80;;;2.08;;
47153;SDS011;32907;41.412;2.164;2023-07-30T02:24:47;4.75;;;2.53;;
47153;SDS011;32907;41.412;2.164;2023-07-30T02:27:15;3.13;;;1.48;;
47153;SDS011;32907;41.412;2.164;2023-07-30T02:29:42;5.30;;;1.85;;
47153;SDS011;32907;41.412;2.164;2023-07-30T02:32:11;3.00;;;1.85;;
47153;SDS011;32907;41.412;2.164;2023-07-30T02:34:39;5.25;;;1.95;;
47153;SDS011;32907;41.412;2.164;2023-07-30T02:37:07;3.25;;;1.60;;
47153;SDS011;32907;41.412;2.164;2023-07-30T02:39:35;5.50;;;2.10;;
47153;SDS011;32907;41.412;2.164;2023-07-30T02:42:03;4.65;;;1.90;;
47153;SDS011;32907;41.412;2.164;2023-07-30T02:44:37;3.65;;;2.08;;
47153;SDS011;32907;41.412;2.164;2023-07-30T02:47:05;3.50;;;1.75;;
47153;SDS011;32907;41.412;2.164;2023-07-30T02:49:33;4.75;;;1.90;;
47153;SDS011;32907;41.412;2.164;2023-07-30T02:52:01;5.40;;;2.03;;
47153;SDS011;32907;41.412;2.164;2023-07-30T02:54:29;6.13;;;2.13;;
47153;SDS011;32907;41.412;2.164;2023-07-30T02:56:56;5.22;;;2.05;;
47153;SDS011;32907;41.412;2.164;2023-07-30T02:59:24;5.22;;;2.20;;
47153;SDS011;32907;41.412;2.164;2023-07-30T03:01:52;4.13;;;1.88;;
47153;SDS011;32907;41.412;2.164;2023-07-30T03:04:20;5.03;;;2.05;;
47153;SDS011;32907;41.412;2.164;2023-07-30T03:06:48;5.55;;;2.38;;
47153;SDS011;32907;41.412;2.164;2023-07-30T03:09:16;4.85;;;1.70;;
47153;SDS011;32907;41.412;2.164;2023-07-30T03:11:44;4.57;;;1.95;;
47153;SDS011;32907;41.412;2.164;2023-07-30T03:14:12;4.30;;;2.30;;
47153;SDS011;32907;41.412;2.164;2023-07-30T03:16:39;4.20;;;2.20;;
47153;SDS011;32907;41.412;2.164;2023-07-30T03:19:07;4.25;;;1.70;;
47153;SDS011;32907;41.412;2.164;2023-07-30T03:21:35;5.22;;;1.88;;
47153;SDS011;32907;41.412;2.164;2023-07-30T03:24:04;4.75;;;1.90;;
47153;SDS011;32907;41.412;2.164;2023-07-30T03:26:31;4.30;;;2.05;;
47153;SDS011;32907;41.412;2.164;2023-07-30T03:28:59;4.30;;;1.92;;
47153;SDS011;32907;41.412;2.164;2023-07-30T03:31:27;5.30;;;2.05;;
47153;SDS011;32907;41.412;2.164;2023-07-30T03:33:56;4.15;;;1.83;;
47153;SDS011;32907;41.412;2.164;2023-07-30T03:36:23;4.38;;;1.90;;
47153;SDS011;32907;41.412;2.164;2023-07-30T03:38:51;4.97;;;1.90;;
47153;SDS011;32907;41.412;2.164;2023-07-30T03:41:19;5.20;;;1.67;;
47153;SDS011;32907;41.412;2.164;2023-07-30T03:43:48;3.40;;;1.77;;
47153;SDS011;32907;41.412;2.164;2023-07-30T03:46:15;3.88;;;1.95;;
47153;SDS011;32907;41.412;2.164;2023-07-30T03:48:43;4.55;;;2.40;;
47153;SDS011;32907;41.412;2.164;2023-07-30T03:51:11;3.47;;;1.98;;
47153;SDS011;32907;41.412;2.164;2023-07-30T03:53:41;6.32;;;2.20;;
47153;SDS011;32907;41.412;2.164;2023-07-30T03:56:10;4.72;;;1.90;;
47153;SDS011;32907;41.412;2.164;2023-07-30T03:58:38;4.95;;;1.88;;
47153;SDS011;32907;41.412;2.164;2023-07-30T04:01:06;5.18;;;2.40;;
47153;SDS011;32907;41.412;2.164;2023-07-30T04:03:36;6.03;;;2.10;;
47153;SDS011;32907;41.412;2.164;2023-07-30T04:06:04;4.47;;;2.05;;
47153;SDS011;32907;41.412;2.164;2023-07-30T04:08:32;5.90;;;2.25;;
47153;SDS011;32907;41.412;2.164;2023-07-30T04:11:00;5.15;;;2.15;;
47153;SDS011;32907;41.412;2.164;2023-07-30T04:13:28;5.13;;;2.22;;
47153;SDS011;32907;41.412;2.164;2023-07-30T04:15:56;3.95;;;2.20;;
47153;SDS011;32907;41.412;2.164;2023-07-30T04:18:23;5.65;;;2.17;;
47153;SDS011;32907;41.412;2.164;2023-07-30T04:20:54;4.43;;;2.45;;
47153;SDS011;32907;41.412;2.164;2023-07-30T04:23:24;7.45;;;2.55;;
47153;SDS011;32907;41.412;2.164;2023-07-30T04:25:52;5.10;;;2.28;;
47153;SDS011;32907;41.412;2.164;2023-07-30T04:28:20;5.75;;;1.83;;
47153;SDS011;32907;41.412;2.164;2023-07-30T04:30:48;4.72;;;2.38;;
47153;SDS011;32907;41.412;2.164;2023-07-30T04:33:17;5.25;;;2.47;;
47153;SDS011;32907;41.412;2.164;2023-07-30T04:35:44;5.55;;;1.95;;
47153;SDS011;32907;41.412;2.164;2023-07-30T04:38:12;4.60;;;2.08;;
47153;SDS011;32907;41.412;2.164;2023-07-30T04:40:41;3.63;;;1.70;;
47153;SDS011;32907;41.412;2.164;2023-07-30T04:43:09;3.22;;;1.73;;
47153;SDS011;32907;41.412;2.164;2023-07-30T04:45:37;5.18;;;2.35;;
47153;SDS011;32907;41.412;2.164;2023-07-30T04:48:05;5.07;;;2.22;;
47153;SDS011;32907;41.412;2.164;2023-07-30T04:50:33;3.55;;;2.00;;
47153;SDS011;32907;41.412;2.164;2023-07-30T04:53:01;3.50;;;1.90;;
47153;SDS011;32907;41.412;2.164;2023-07-30T04:55:29;4.82;;;2.00;;
47153;SDS011;32907;41.412;2.164;2023-07-30T04:57:57;4.97;;;1.83;;
47153;SDS011;32907;41.412;2.164;2023-07-30T05:00:25;5.97;;;2.25;;
47153;SDS011;32907;41.412;2.164;2023-07-30T05:02:53;7.13;;;2.20;;
47153;SDS011;32907;41.412;2.164;2023-07-30T05:05:21;6.05;;;2.55;;
47153;SDS011;32907;41.412;2.164;2023-07-30T05:07:49;4.63;;;1.88;;
47153;SDS011;32907;41.412;2.164;2023-07-30T05:10:17;3.92;;;2.10;;
47153;SDS011;32907;41.412;2.164;2023-07-30T05:12:44;3.70;;;1.77;;
47153;SDS011;32907;41.412;2.164;2023-07-30T05:15:12;5.00;;;1.95;;
47153;SDS011;32907;41.412;2.164;2023-07-30T05:17:40;5.10;;;2.08;;
47153;SDS011;32907;41.412;2.164;2023-07-30T05:20:08;7.32;;;2.30;;
47153;SDS011;32907;41.412;2.164;2023-07-30T05:22:37;6.25;;;2.10;;
47153;SDS011;32907;41.412;2.164;2023-07-30T05:25:05;4.95;;;2.13;;
47153;SDS011;32907;41.412;2.164;2023-07-30T05:27:34;5.95;;;1.85;;
47153;SDS011;32907;41.412;2.164;2023-07-30T05:30:03;7.50;;;1.83;;
47153;SDS011;32907;41.412;2.164;2023-07-30T05:32:31;4.25;;;2.22;;
47153;SDS011;32907;41.412;2.164;2023-07-30T05:34:59;6.68;;;2.08;;
47153;SDS011;32907;41.412;2.164;2023-07-30T05:37:27;6.00;;;2.28;;
47153;SDS011;32907;41.412;2.164;2023-07-30T05:39:55;7.57;;;2.17;;
47153;SDS011;32907;41.412;2.164;2023-07-30T05:42:23;3.90;;;1.90;;
47153;SDS011;32907;41.412;2.164;2023-07-30T05:44:51;4.75;;;2.08;;
47153;SDS011;32907;41.412;2.164;2023-07-30T05:47:19;4.97;;;1.92;;
47153;SDS011;32907;41.412;2.164;2023-07-30T05:49:46;7.10;;;2.28;;
47153;SDS011;32907;41.412;2.164;2023-07-30T05:52:15;5.57;;;2.30;;
47153;SDS011;32907;41.412;2.164;2023-07-30T05:54:42;4.50;;;1.83;;
47153;SDS011;32907;41.412;2.164;2023-07-30T05:57:10;4.53;;;2.10;;
47153;SDS011;32907;41.412;2.164;2023-07-30T05:59:38;5.00;;;2.15;;
47153;SDS011;32907;41.412;2.164;2023-07-30T06:02:15;4.97;;;2.33;;
47153;SDS011;32907;41.412;2.164;2023-07-30T06:04:43;6.03;;;2.30;;
47153;SDS011;32907;41.412;2.164;2023-07-30T06:07:11;6.20;;;2.78;;
47153;SDS011;32907;41.412;2.164;2023-07-30T06:09:39;4.47;;;1.33;;
47153;SDS011;32907;41.412;2.164;2023-07-30T06:12:07;3.28;;;0.98;;
47153;SDS011;32907;41.412;2.164;2023-07-30T06:14:35;4.45;;;1.73;;
47153;SDS011;32907;41.412;2.164;2023-07-30T06:17:03;3.20;;;1.42;;
47153;SDS011;32907;41.412;2.164;2023-07-30T06:19:32;5.97;;;1.77;;
47153;SDS011;32907;41.412;2.164;2023-07-30T06:21:59;6.35;;;2.20;;
47153;SDS011;32907;41.412;2.164;2023-07-30T06:24:27;8.23;;;2.72;;
47153;SDS011;32907;41.412;2.164;2023-07-30T06:26:55;6.10;;;2.65;;
47153;SDS011;32907;41.412;2.164;2023-07-30T06:29:23;5.32;;;3.05;;
47153;SDS011;32907;41.412;2.164;2023-07-30T06:31:51;4.88;;;2.78;;
47153;SDS011;32907;41.412;2.164;2023-07-30T06:34:19;7.57;;;2.90;;
47153;SDS011;32907;41.412;2.164;2023-07-30T06:36:47;5.57;;;2.50;;
47153;SDS011;32907;41.412;2.164;2023-07-30T06:39:15;6.40;;;3.10;;
47153;SDS011;32907;41.412;2.164;2023-07-30T06:41:43;7.30;;;3.20;;
47153;SDS011;32907;41.412;2.164;2023-07-30T06:44:11;5.57;;;2.47;;
47153;SDS011;32907;41.412;2.164;2023-07-30T06:46:39;4.47;;;2.03;;
47153;SDS011;32907;41.412;2.164;2023-07-30T06:49:07;7.88;;;2.65;;
47153;SDS011;32907;41.412;2.164;2023-07-30T06:51:35;8.45;;;2.67;;
47153;SDS011;32907;41.412;2.164;2023-07-30T06:54:03;7.40;;;3.10;;
47153;SDS011;32907;41.412;2.164;2023-07-30T06:56:32;4.10;;;2.40;;
47153;SDS011;32907;41.412;2.164;2023-07-30T06:59:01;6.07;;;2.80;;
47153;SDS011;32907;41.412;2.164;2023-07-30T07:01:30;7.50;;;3.13;;
47153;SDS011;32907;41.412;2.164;2023-07-30T07:03:58;5.13;;;2.65;;
47153;SDS011;32907;41.412;2.164;2023-07-30T07:06:27;4.45;;;2.35;;
47153;SDS011;32907;41.412;2.164;2023-07-30T07:08:55;4.97;;;2.40;;
47153;SDS011;32907;41.412;2.164;2023-07-30T07:11:23;4.95;;;2.60;;
47153;SDS011;32907;41.412;2.164;2023-07-30T07:13:51;3.70;;;2.28;;
47153;SDS011;32907;41.412;2.164;2023-07-30T07:16:19;5.13;;;2.25;;
47153;SDS011;32907;41.412;2.164;2023-07-30T07:18:47;6.43;;;2.13;;
47153;SDS011;32907;41.412;2.164;2023-07-30T07:21:16;8.60;;;2.55;;
47153;SDS011;32907;41.412;2.164;2023-07-30T07:23:44;7.25;;;2.38;;
47153;SDS011;32907;41.412;2.164;2023-07-30T07:26:12;4.95;;;2.10;;
47153;SDS011;32907;41.412;2.164;2023-07-30T07:28:39;5.05;;;2.15;;
47153;SDS011;32907;41.412;2.164;2023-07-30T07:31:10;5.03;;;2.53;;
47153;SDS011;32907;41.412;2.164;2023-07-30T07:33:38;4.72;;;2.47;;
47153;SDS011;32907;41.412;2.164;2023-07-30T07:36:07;5.03;;;2.67;;
47153;SDS011;32907;41.412;2.164;2023-07-30T07:38:35;5.35;;;2.40;;
47153;SDS011;32907;41.412;2.164;2023-07-30T07:41:03;3.83;;;2.10;;
47153;SDS011;32907;41.412;2.164;2023-07-30T07:43:31;5.22;;;2.00;;
47153;SDS011;32907;41.412;2.164;2023-07-30T07:46:00;5.20;;;2.55;;
47153;SDS011;32907;41.412;2.164;2023-07-30T07:48:28;5.18;;;2.20;;
47153;SDS011;32907;41.412;2.164;2023-07-30T07:50:56;7.43;;;2.55;;
47153;SDS011;32907;41.412;2.164;2023-07-30T07:53:24;4.93;;;2.17;;
47153;SDS011;32907;41.412;2.164;2023-07-30T07:55:51;4.38;;;2.10;;
47153;SDS011;32907;41.412;2.164;2023-07-30T07:58:19;4.80;;;2.08;;
47153;SDS011;32907;41.412;2.164;2023-07-30T08:00:47;6.15;;;2.00;;
47153;SDS011;32907;41.412;2.164;2023-07-30T08:03:15;6.30;;;2.60;;
47153;SDS011;32907;41.412;2.164;2023-07-30T08:05:43;4.20;;;1.95;;
47153;SDS011;32907;41.412;2.164;2023-07-30T08:08:11;5.55;;;2.45;;
47153;SDS011;32907;41.412;2.164;2023-07-30T08:10:41;5.75;;;2.08;;
47153;SDS011;32907;41.412;2.164;2023-07-30T08:13:11;3.25;;;1.95;;
47153;SDS011;32907;41.412;2.164;2023-07-30T08:15:39;4.93;;;2.53;;
47153;SDS011;32907;41.412;2.164;2023-07-30T08:18:07;4.07;;;1.98;;
47153;SDS011;32907;41.412;2.164;2023-07-30T08:20:36;7.05;;;2.55;;
47153;SDS011;32907;41.412;2.164;2023-07-30T08:23:07;6.25;;;2.30;;
47153;SDS011;32907;41.412;2.164;2023-07-30T08:25:35;4.78;;;2.20;;
47153;SDS011;32907;41.412;2.164;2023-07-30T08:28:03;5.72;;;2.30;;
47153;SDS011;32907;41.412;2.164;2023-07-30T08:30:31;5.55;;;2.42;;
47153;SDS011;32907;41.412;2.164;2023-07-30T08:32:59;7.05;;;2.47;;
47153;SDS011;32907;41.412;2.164;2023-07-30T08:35:27;5.35;;;2.28;;
47153;SDS011;32907;41.412;2.164;2023-07-30T08:37:56;6.28;;;2.47;;
47153;SDS011;32907;41.412;2.164;2023-07-30T08:40:24;4.65;;;2.38;;
47153;SDS011;32907;41.412;2.164;2023-07-30T08:42:52;5.47;;;2.20;;
47153;SDS011;32907;41.412;2.164;2023-07-30T08:45:21;5.25;;;2.50;;
47153;SDS011;32907;41.412;2.164;2023-07-30T08:47:49;4.85;;;2.42;;
47153;SDS011;32907;41.412;2.164;2023-07-30T08:50:17;4.57;;;2.20;;
47153;SDS011;32907;41.412;2.164;2023-07-30T08:52:45;4.53;;;2.30;;
47153;SDS011;32907;41.412;2.164;2023-07-30T08:55:15;8.15;;;2.28;;
47153;SDS011;32907;41.412;2.164;2023-07-30T08:57:45;4.65;;;2.38;;
47153;SDS011;32907;41.412;2.164;2023-07-30T09:00:14;4.95;;;3.17;;
47153;SDS011;32907;41.412;2.164;2023-07-30T09:02:47;7.13;;;5.05;;
47153;SDS011;32907;41.412;2.164;2023-07-30T09:05:19;3.72;;;2.65;;
47153;SDS011;32907;41.412;2.164;2023-07-30T09:07:48;5.32;;;3.28;;
47153;SDS011;32907;41.412;2.164;2023-07-30T09:10:16;6.45;;;3.80;;
47153;SDS011;32907;41.412;2.164;2023-07-30T09:12:44;4.53;;;3.10;;
47153;SDS011;32907;41.412;2.164;2023-07-30T09:15:15;5.75;;;3.88;;
47153;SDS011;32907;41.412;2.164;2023-07-30T09:17:43;7.30;;;3.72;;
47153;SDS011;32907;41.412;2.164;2023-07-30T09:20:13;6.18;;;4.53;;
47153;SDS011;32907;41.412;2.164;2023-07-30T09:22:41;7.72;;;5.18;;
47153;SDS011;32907;41.412;2.164;2023-07-30T09:25:09;4.72;;;2.78;;
47153;SDS011;32907;41.412;2.164;2023-07-30T09:27:38;5.65;;;3.47;;
47153;SDS011;32907;41.412;2.164;2023-07-30T09:30:06;6.18;;;3.53;;
47153;SDS011;32907;41.412;2.164;2023-07-30T09:32:34;3.53;;;2.65;;
47153;SDS011;32907;41.412;2.164;2023-07-30T09:37:38;5.50;;;2.40;;
47153;SDS011;32907;41.412;2.164;2023-07-30T09:40:08;4.70;;;2.30;;
47153;SDS011;32907;41.412;2.164;2023-07-30T09:42:46;5.18;;;2.22;;
47153;SDS011;32907;41.412;2.164;2023-07-30T09:45:20;4.50;;;3.10;;
47153;SDS011;32907;41.412;2.164;2023-07-30T09:47:50;3.90;;;2.30;;
47153;SDS011;32907;41.412;2.164;2023-07-30T09:50:19;2.90;;;1.80;;
47153;SDS011;32907;41.412;2.164;2023-07-30T09:52:47;3.95;;;1.83;;
47153;SDS011;32907;41.412;2.164;2023-07-30T09:55:16;4.75;;;2.50;;
47153;SDS011;32907;41.412;2.164;2023-07-30T09:57:46;4.43;;;2.70;;
47153;SDS011;32907;41.412;2.164;2023-07-30T10:00:14;3.65;;;2.40;;
47153;SDS011;32907;41.412;2.164;2023-07-30T10:02:45;4.88;;;2.05;;
47153;SDS011;32907;41.412;2.164;2023-07-30T10:05:15;4.65;;;2.80;;
47153;SDS011;32907;41.412;2.164;2023-07-30T10:07:46;3.60;;;2.17;;
47153;SDS011;32907;41.412;2.164;2023-07-30T10:10:18;4.20;;;2.70;;
47153;SDS011;32907;41.412;2.164;2023-07-30T10:12:49;3.35;;;1.92;;
47153;SDS011;32907;41.412;2.164;2023-07-30T10:15:19;3.40;;;2.10;;
47153;SDS011;32907;41.412;2.164;2023-07-30T10:17:51;3.13;;;2.20;;
47153;SDS011;32907;41.412;2.164;2023-07-30T10:20:25;5.15;;;2.20;;
47153;SDS011;32907;41.412;2.164;2023-07-30T10:25:30;4.75;;;2.50;;
47153;SDS011;32907;41.412;2.164;2023-07-30T10:28:25;4.22;;;3.15;;
47153;SDS011;32907;41.412;2.164;2023-07-30T10:30:59;7.68;;;4.50;;
47153;SDS011;32907;41.412;2.164;2023-07-30T10:33:44;7.00;;;3.08;;
47153;SDS011;32907;41.412;2.164;2023-07-30T10:36:18;4.50;;;2.30;;
47153;SDS011;32907;41.412;2.164;2023-07-30T10:39:14;3.28;;;2.00;;
47153;SDS011;32907;41.412;2.164;2023-07-30T10:41:43;2.55;;;1.73;;
47153;SDS011;32907;41.412;2.164;2023-07-30T10:46:55;5.20;;;3.22;;
47153;SDS011;32907;41.412;2.164;2023-07-30T10:49:24;6.63;;;3.35;;
47153;SDS011;32907;41.412;2.164;2023-07-30T10:51:55;5.85;;;2.50;;
47153;SDS011;32907;41.412;2.164;2023-07-30T10:54:32;6.30;;;1.98;;
47153;SDS011;32907;41.412;2.164;2023-07-30T10:59:35;5.93;;;2.80;;
47153;SDS011;32907;41.412;2.164;2023-07-30T11:02:04;5.55;;;2.70;;
47153;SDS011;32907;41.412;2.164;2023-07-30T11:04:35;6.45;;;2.83;;
47153;SDS011;32907;41.412;2.164;2023-07-30T11:07:03;6.43;;;2.35;;
47153;SDS011;32907;41.412;2.164;2023-07-30T11:09:31;3.42;;;1.60;;
47153;SDS011;32907;41.412;2.164;2023-07-30T11:11:59;4.38;;;1.90;;
47153;SDS011;32907;41.412;2.164;2023-07-30T11:14:28;4.07;;;2.00;;
47153;SDS011;32907;41.412;2.164;2023-07-30T11:16:59;4.50;;;2.00;;
47153;SDS011;32907;41.412;2.164;2023-07-30T11:19:27;5.22;;;2.22;;
47153;SDS011;32907;41.412;2.164;2023-07-30T11:21:56;4.93;;;1.80;;
47153;SDS011;32907;41.412;2.164;2023-07-30T11:24:35;3.53;;;1.95;;
47153;SDS011;32907;41.412;2.164;2023-07-30T11:27:03;3.80;;;2.00;;
47153;SDS011;32907;41.412;2.164;2023-07-30T11:29:32;4.78;;;2.03;;
47153;SDS011;32907;41.412;2.164;2023-07-30T11:32:00;3.75;;;2.03;;
47153;SDS011;32907;41.412;2.164;2023-07-30T11:34:30;3.38;;;2.20;;
47153;SDS011;32907;41.412;2.164;2023-07-30T11:37:02;4.95;;;2.20;;
47153;SDS011;32907;41.412;2.164;2023-07-30T11:39:31;3.15;;;1.77;;
47153;SDS011;32907;41.412;2.164;2023-07-30T11:41:59;3.65;;;1.80;;
47153;SDS011;32907;41.412;2.164;2023-07-30T11:46:59;5.72;;;1.77;;
47153;SDS011;32907;41.412;2.164;2023-07-30T11:49:27;4.18;;;2.47;;
47153;SDS011;32907;41.412;2.164;2023-07-30T11:52:08;7.47;;;2.10;;
47153;SDS011;32907;41.412;2.164;2023-07-30T11:54:37;3.65;;;1.98;;
47153;SDS011;32907;41.412;2.164;2023-07-30T11:57:05;5.10;;;1.60;;
47153;SDS011;32907;41.412;2.164;2023-07-30T11:59:34;2.72;;;1.85;;
47153;SDS011;32907;41.412;2.164;2023-07-30T12:02:03;3.60;;;1.63;;
47153;SDS011;32907;41.412;2.164;2023-07-30T12:04:42;6.40;;;2.25;;
47153;SDS011;32907;41.412;2.164;2023-07-30T12:07:11;3.95;;;1.98;;
47153;SDS011;32907;41.412;2.164;2023-07-30T12:09:39;4.03;;;2.03;;
47153;SDS011;32907;41.412;2.164;2023-07-30T12:12:08;10.93;;;5.80;;
47153;SDS011;32907;41.412;2.164;2023-07-30T12:14:43;8.68;;;5.40;;
47153;SDS011;32907;41.412;2.164;2023-07-30T12:17:11;19.85;;;14.15;;
47153;SDS011;32907;41.412;2.164;2023-07-30T12:19:40;10.70;;;7.22;;
47153;SDS011;32907;41.412;2.164;2023-07-30T12:22:08;6.70;;;5.05;;
47153;SDS011;32907;41.412;2.164;2023-07-30T12:24:36;6.05;;;4.82;;
47153;SDS011;32907;41.412;2.164;2023-07-30T12:27:04;5.18;;;3.38;;
47153;SDS011;32907;41.412;2.164;2023-07-30T12:29:32;4.72;;;2.97;;
47153;SDS011;32907;41.412;2.164;2023-07-30T12:32:00;5.60;;;3.00;;
47153;SDS011;32907;41.412;2.164;2023-07-30T12:34:30;10.18;;;5.30;;
47153;SDS011;32907;41.412;2.164;2023-07-30T12:36:59;6.25;;;3.30;;
47153;SDS011;32907;41.412;2.164;2023-07-30T12:39:27;5.70;;;3.95;;
47153;SDS011;32907;41.412;2.164;2023-07-30T12:41:55;6.10;;;4.43;;
47153;SDS011;32907;41.412;2.164;2023-07-30T12:44:22;5.45;;;3.40;;
47153;SDS011;32907;41.412;2.164;2023-07-30T12:46:50;3.83;;;2.70;;
47153;SDS011;32907;41.412;2.164;2023-07-30T12:49:18;4.75;;;2.72;;
47153;SDS011;32907;41.412;2.164;2023-07-30T12:51:46;4.70;;;2.60;;
47153;SDS011;32907;41.412;2.164;2023-07-30T12:54:14;4.30;;;2.00;;
47153;SDS011;32907;41.412;2.164;2023-07-30T12:56:45;3.78;;;2.38;;
47153;SDS011;32907;41.412;2.164;2023-07-30T12:59:16;3.28;;;2.10;;
47153;SDS011;32907;41.412;2.164;2023-07-30T13:01:44;3.53;;;2.15;;
47153;SDS011;32907;41.412;2.164;2023-07-30T13:04:14;3.47;;;2.00;;
47153;SDS011;32907;41.412;2.164;2023-07-30T13:06:42;3.95;;;2.05;;
47153;SDS011;32907;41.412;2.164;2023-07-30T13:09:10;5.22;;;2.05;;
47153;SDS011;32907;41.412;2.164;2023-07-30T13:11:38;3.58;;;1.90;;
47153;SDS011;32907;41.412;2.164;2023-07-30T13:14:07;2.92;;;1.60;;
47153;SDS011;32907;41.412;2.164;2023-07-30T13:16:35;3.10;;;1.70;;
47153;SDS011;32907;41.412;2.164;2023-07-30T13:19:04;2.47;;;1.30;;
47153;SDS011;32907;41.412;2.164;2023-07-30T13:21:32;4.55;;;2.08;;
47153;SDS011;32907;41.412;2.164;2023-07-30T13:23:59;3.50;;;2.00;;
47153;SDS011;32907;41.412;2.164;2023-07-30T13:26:27;9.48;;;2.22;;
47153;SDS011;32907;41.412;2.164;2023-07-30T13:28:55;13.95;;;3.58;;
47153;SDS011;32907;41.412;2.164;2023-07-30T13:31:23;4.78;;;2.10;;
47153;SDS011;32907;41.412;2.164;2023-07-30T13:33:51;8.52;;;2.40;;
47153;SDS011;32907;41.412;2.164;2023-07-30T13:36:19;6.50;;;2.15;;
47153;SDS011;32907;41.412;2.164;2023-07-30T13:38:49;5.07;;;1.95;;
47153;SDS011;32907;41.412;2.164;2023-07-30T13:41:17;5.13;;;2.00;;
47153;SDS011;32907;41.412;2.164;2023-07-30T13:43:45;3.80;;;1.58;;
47153;SDS011;32907;41.412;2.164;2023-07-30T13:46:13;3.15;;;1.48;;
47153;SDS011;32907;41.412;2.164;2023-07-30T13:48:41;3.75;;;1.42;;
47153;SDS011;32907;41.412;2.164;2023-07-30T13:51:09;3.78;;;1.70;;
47153;SDS011;32907;41.412;2.164;2023-07-30T13:53:36;4.03;;;1.67;;
47153;SDS011;32907;41.412;2.164;2023-07-30T13:56:08;2.90;;;1.65;;
47153;SDS011;32907;41.412;2.164;2023-07-30T13:58:36;3.60;;;1.60;;
47153;SDS011;32907;41.412;2.164;2023-07-30T14:01:05;3.25;;;1.50;;
47153;SDS011;32907;41.412;2.164;2023-07-30T14:03:33;3.78;;;1.75;;
47153;SDS011;32907;41.412;2.164;2023-07-30T14:06:01;3.28;;;1.52;;
47153;SDS011;32907;41.412;2.164;2023-07-30T14:08:29;3.13;;;1.58;;
47153;SDS011;32907;41.412;2.164;2023-07-30T14:10:57;3.67;;;1.67;;
47153;SDS011;32907;41.412;2.164;2023-07-30T14:13:26;11.40;;;4.88;;
47153;SDS011;32907;41.412;2.164;2023-07-30T14:15:55;8.95;;;3.30;;
47153;SDS011;32907;41.412;2.164;2023-07-30T14:18:24;5.63;;;2.88;;
47153;SDS011;32907;41.412;2.164;2023-07-30T14:20:53;6.32;;;2.33;;
47153;SDS011;32907;41.412;2.164;2023-07-30T14:23:21;5.35;;;2.00;;
47153;SDS011;32907;41.412;2.164;2023-07-30T14:25:49;3.42;;;1.60;;
47153;SDS011;32907;41.412;2.164;2023-07-30T14:28:17;4.78;;;1.92;;
47153;SDS011;32907;41.412;2.164;2023-07-30T14:30:45;5.38;;;1.90;;
47153;SDS011;32907;41.412;2.164;2023-07-30T14:33:13;6.25;;;1.70;;
47153;SDS011;32907;41.412;2.164;2023-07-30T14:35:41;2.85;;;1.58;;
47153;SDS011;32907;41.412;2.164;2023-07-30T14:38:09;3.78;;;1.50;;
47153;SDS011;32907;41.412;2.164;2023-07-30T14:40:38;3.38;;;1.40;;
47153;SDS011;32907;41.412;2.164;2023-07-30T14:43:06;3.22;;;1.48;;
47153;SDS011;32907;41.412;2.164;2023-07-30T14:45:34;3.40;;;1.77;;
47153;SDS011;32907;41.412;2.164;2023-07-30T14:48:02;2.80;;;1.45;;
47153;SDS011;32907;41.412;2.164;2023-07-30T14:50:30;4.15;;;1.58;;
47153;SDS011;32907;41.412;2.164;2023-07-30T14:52:58;4.82;;;1.65;;
47153;SDS011;32907;41.412;2.164;2023-07-30T14:55:26;3.25;;;1.40;;
47153;SDS011;32907;41.412;2.164;2023-07-30T14:57:54;4.47;;;1.80;;
47153;SDS011;32907;41.412;2.164;2023-07-30T15:00:22;6.07;;;1.70;;
47153;SDS011;32907;41.412;2.164;2023-07-30T15:02:50;3.67;;;1.40;;
47153;SDS011;32907;41.412;2.164;2023-07-30T15:05:18;4.05;;;1.73;;
47153;SDS011;32907;41.412;2.164;2023-07-30T15:07:46;2.47;;;1.35;;
47153;SDS011;32907;41.412;2.164;2023-07-30T15:10:14;3.38;;;1.48;;